createdAt,value
2019-06-26T00:01:31.965Z,101983.13
2019-06-26T00:04:02.203Z,101982.48
2019-06-26T00:06:32.243Z,101983.34
2019-06-26T00:09:02.514Z,101980.00
2019-06-26T00:11:34.352Z,101976.20
2019-06-26T00:14:04.416Z,101972.13
2019-06-26T00:16:34.572Z,101970.80
2019-06-26T00:19:04.687Z,101966.82
2019-06-26T00:33:15.696Z,101960.83
2019-06-26T00:35:45.619Z,101956.17
2019-06-26T00:38:15.845Z,101958.36
2019-06-26T00:40:45.807Z,101955.70
2019-06-26T00:43:17.708Z,101953.98
2019-06-26T00:45:47.520Z,101952.75
2019-06-26T00:48:56.486Z,101950.77
2019-06-26T00:51:26.413Z,101944.70
2019-06-26T00:53:56.137Z,101941.19
2019-06-26T00:57:05.030Z,101942.52
2019-06-26T01:02:48.104Z,101941.09
2019-06-26T01:05:18.536Z,101941.27
2019-06-26T01:10:45.140Z,101939.67
2019-06-26T01:13:16.197Z,101931.72
2019-06-26T01:15:46.362Z,101932.19
2019-06-26T01:18:15.735Z,101927.53
2019-06-26T01:20:45.702Z,101925.64
2019-06-26T01:23:16.468Z,101928.84
2019-06-26T01:26:25.218Z,101924.48
2019-06-26T01:28:55.112Z,101928.84
2019-06-26T01:31:25.259Z,101931.62
2019-06-26T01:33:55.618Z,101922.34
2019-06-26T01:36:25.615Z,101919.30
2019-06-26T01:38:55.526Z,101922.13
2019-06-26T01:41:24.889Z,101924.86
2019-06-26T01:43:56.273Z,101926.27
2019-06-26T01:46:25.961Z,101916.98
2019-06-26T01:48:55.365Z,101915.66
2019-06-26T01:51:25.120Z,101920.70
2019-06-26T01:53:54.727Z,101918.52
2019-06-26T01:56:25.129Z,101923.36
2019-06-26T01:58:54.476Z,101911.89
2019-06-26T02:04:20.258Z,101906.95
2019-06-26T02:06:51.250Z,101897.68
2019-06-26T02:09:21.780Z,101898.41
2019-06-26T02:11:51.911Z,101899.74
2019-06-26T02:14:31.152Z,101898.33
2019-06-26T02:16:53.640Z,101896.53
2019-06-26T02:19:23.779Z,101892.47
2019-06-26T02:21:53.592Z,101893.63
2019-06-26T02:25:02.757Z,101893.12
2019-06-26T02:27:34.530Z,101890.97
2019-06-26T02:30:04.280Z,101889.53
2019-06-26T02:32:35.046Z,101890.97
2019-06-26T02:38:20.267Z,101882.63
2019-06-26T02:40:50.850Z,101881.69
2019-06-26T02:43:21.229Z,101880.54
2019-06-26T02:45:51.763Z,101875.23
2019-06-26T02:48:21.341Z,101873.27
2019-06-26T02:51:30.161Z,101871.27
2019-06-26T02:54:00.710Z,101873.44
2019-06-26T02:56:33.036Z,101872.97
2019-06-26T03:01:58.208Z,101866.98
2019-06-26T03:04:28.227Z,101860.48
2019-06-26T03:06:57.590Z,101865.78
2019-06-26T03:09:27.894Z,101864.45
2019-06-26T03:11:58.413Z,101863.59
2019-06-26T03:14:27.900Z,101856.97
2019-06-26T03:16:57.398Z,101849.48
2019-06-26T03:19:26.902Z,101850.50
2019-06-26T03:22:35.567Z,101852.21
2019-06-26T03:28:17.801Z,101845.64
2019-06-26T03:30:47.476Z,101847.36
2019-06-26T03:33:18.208Z,101831.63
2019-06-26T03:35:48.327Z,101831.27
2019-06-26T03:38:18.207Z,101828.22
2019-06-26T03:40:48.108Z,101826.39
2019-06-26T03:43:56.772Z,101825.99
2019-06-26T03:49:36.878Z,101821.95
2019-06-26T03:54:57.835Z,101816.96
2019-06-26T04:03:40.854Z,101811.11
2019-06-26T04:06:10.649Z,101813.16
2019-06-26T04:08:40.069Z,101805.77
2019-06-26T04:11:49.129Z,101801.96
2019-06-26T04:14:18.917Z,101799.73
2019-06-26T04:17:27.619Z,101791.61
2019-06-26T04:19:57.372Z,101781.64
2019-06-26T04:22:27.754Z,101785.20
2019-06-26T04:24:58.521Z,101776.20
2019-06-26T04:30:29.574Z,101777.95
2019-06-26T04:32:59.402Z,101762.50
2019-06-26T04:38:25.144Z,101766.02
2019-06-26T04:41:34.447Z,101758.87
2019-06-26T04:47:01.426Z,101755.98
2019-06-26T04:52:41.743Z,101745.16
2019-06-26T04:58:26.177Z,101748.31
2019-06-26T05:00:55.665Z,101743.91
2019-06-26T05:03:26.284Z,101743.80
2019-06-26T05:05:55.798Z,101742.14
2019-06-26T05:08:25.611Z,101743.83
2019-06-26T05:11:34.644Z,101739.00
2019-06-26T05:17:05.680Z,101734.27
2019-06-26T05:19:35.903Z,101732.82
2019-06-26T05:22:27.719Z,101733.39
2019-06-26T05:24:57.111Z,101725.97
2019-06-26T05:27:26.715Z,101719.27
2019-06-26T05:30:36.900Z,101723.84
2019-06-26T05:33:06.556Z,101717.34
2019-06-26T05:35:36.527Z,101711.66
2019-06-26T05:38:45.225Z,101715.87
2019-06-26T05:44:23.840Z,101712.69
2019-06-26T05:46:53.653Z,101707.17
2019-06-26T05:49:23.223Z,101704.41
2019-06-26T05:51:53.022Z,101704.06
2019-06-26T05:54:23.347Z,101697.69
2019-06-26T05:56:52.702Z,101692.88
2019-06-26T06:00:01.546Z,101687.34
2019-06-26T06:02:32.435Z,101685.81
2019-06-26T06:05:01.792Z,101680.58
2019-06-26T06:10:27.678Z,101669.94
2019-06-26T06:12:57.284Z,101668.39
2019-06-26T06:15:27.415Z,101664.40
2019-06-26T06:17:57.643Z,101658.28
2019-06-26T06:21:08.568Z,101655.45
2019-06-26T06:23:37.940Z,101648.91
2019-06-26T06:26:08.186Z,101642.05
2019-06-26T06:29:17.029Z,101641.61
2019-06-26T06:31:48.790Z,101636.02
2019-06-26T06:37:14.569Z,101626.02
2019-06-26T06:39:43.941Z,101620.13
2019-06-26T06:42:13.478Z,101620.47
2019-06-26T06:44:43.153Z,101612.30
2019-06-26T06:47:13.165Z,101613.43
2019-06-26T06:52:56.552Z,101612.30
2019-06-26T06:55:26.381Z,101609.58
2019-06-26T06:58:15.155Z,101605.41
2019-06-26T07:00:44.536Z,101602.13
2019-06-26T07:03:13.903Z,101603.63
2019-06-26T07:05:43.818Z,101611.80
2019-06-26T07:11:28.976Z,101603.30
2019-06-26T07:13:58.571Z,101606.06
2019-06-26T07:16:27.952Z,101599.94
2019-06-26T07:19:16.610Z,101591.82
2019-06-26T07:21:58.018Z,101591.79
2019-06-26T07:24:27.489Z,101588.49
2019-06-26T07:26:56.850Z,101589.50
2019-06-26T07:30:06.281Z,101583.88
2019-06-26T07:32:36.018Z,101588.52
2019-06-26T07:35:45.256Z,101583.25
2019-06-26T07:38:14.783Z,101579.11
2019-06-26T07:40:44.909Z,101571.11
2019-06-26T07:43:16.560Z,101569.17
2019-06-26T07:45:45.943Z,101569.72
2019-06-26T07:48:15.511Z,101565.34
2019-06-26T07:50:44.900Z,101569.65
2019-06-26T07:53:14.268Z,101565.31
2019-06-26T07:55:43.705Z,101558.08
2019-06-26T07:58:13.155Z,101559.80
2019-06-26T08:00:42.958Z,101567.16
2019-06-26T08:03:12.366Z,101555.52
2019-06-26T08:05:43.211Z,101558.73
2019-06-26T08:08:14.834Z,101561.92
2019-06-26T08:11:06.197Z,101555.00
2019-06-26T08:13:34.201Z,101552.75
2019-06-26T08:16:03.622Z,101550.11
2019-06-26T08:18:33.372Z,101547.30
2019-06-26T08:21:12.179Z,101550.77
2019-06-26T08:23:35.824Z,101550.22
2019-06-26T08:26:05.208Z,101540.66
2019-06-26T08:28:34.699Z,101536.66
2019-06-26T08:31:04.209Z,101538.41
2019-06-26T08:33:33.855Z,101534.79
2019-06-26T08:36:03.293Z,101534.14
2019-06-26T08:38:32.721Z,101529.71
2019-06-26T08:43:36.854Z,101516.91
2019-06-26T08:46:06.220Z,101521.09
2019-06-26T08:48:39.952Z,101514.94
2019-06-26T08:51:06.763Z,101517.24
2019-06-26T08:53:36.110Z,101512.23
2019-06-26T08:56:06.293Z,101507.19
2019-06-26T08:58:35.842Z,101504.86
2019-06-26T09:01:05.193Z,101504.69
2019-06-26T09:03:34.634Z,101457.02
2019-06-26T09:06:04.339Z,101498.59
2019-06-26T09:08:33.809Z,101504.76
2019-06-26T09:11:03.444Z,101505.61
2019-06-26T09:13:33.334Z,101504.76
2019-06-26T09:19:17.938Z,101496.27
2019-06-26T09:21:48.707Z,101482.97
2019-06-26T09:24:18.178Z,101484.66
2019-06-26T09:26:49.022Z,101486.51
2019-06-26T09:29:23.617Z,101492.86
2019-06-26T09:31:51.152Z,101477.91
2019-06-26T09:34:21.539Z,101483.48
2019-06-26T09:36:51.353Z,101480.09
2019-06-26T09:42:10.009Z,101479.19
2019-06-26T09:44:39.680Z,101476.78
2019-06-26T09:47:09.442Z,101478.18
2019-06-26T09:49:40.414Z,101469.55
2019-06-26T09:55:25.071Z,101457.59
2019-06-26T10:01:03.061Z,101447.72
2019-06-26T10:06:48.595Z,101443.86
2019-06-26T10:09:57.678Z,101433.80
2019-06-26T10:13:07.082Z,101438.66
2019-06-26T10:19:08.673Z,101430.77
2019-06-26T10:21:23.748Z,101429.06
2019-06-26T10:23:53.640Z,101420.66
2019-06-26T10:27:02.582Z,101416.30
2019-06-26T10:29:32.594Z,101409.02
2019-06-26T10:32:02.408Z,101400.89
2019-06-26T10:34:34.972Z,101397.16
2019-06-26T10:37:04.725Z,101392.99
2019-06-26T10:39:34.839Z,101397.00
2019-06-26T10:45:00.321Z,101393.86
2019-06-26T10:47:32.278Z,101375.68
2019-06-26T10:52:58.197Z,101365.98
2019-06-26T10:56:07.314Z,101357.56
2019-06-26T10:58:38.577Z,101350.78
2019-06-26T11:03:59.187Z,101346.17
2019-06-26T11:06:28.632Z,101344.56
2019-06-26T11:08:57.960Z,101343.76
2019-06-26T11:11:27.403Z,101342.69
2019-06-26T11:13:56.822Z,101341.51
2019-06-26T11:16:27.114Z,101334.49
2019-06-26T11:18:56.533Z,101340.67
2019-06-26T11:24:36.177Z,101332.75
2019-06-26T11:27:06.681Z,101316.10
2019-06-26T11:29:36.622Z,101312.31
2019-06-26T11:32:09.449Z,101313.01
2019-06-26T11:34:38.683Z,101307.45
2019-06-26T11:37:08.632Z,101299.83
2019-06-26T11:39:38.037Z,101303.61
2019-06-26T11:42:07.364Z,101299.18
2019-06-26T11:44:37.088Z,101295.88
2019-06-26T11:47:06.664Z,101302.77
2019-06-26T11:49:36.171Z,101304.16
2019-06-26T11:52:05.659Z,101303.27
2019-06-26T11:54:35.509Z,101285.15
2019-06-26T11:57:05.329Z,101290.38
2019-06-26T11:59:34.815Z,101286.81
2019-06-26T12:02:43.499Z,101209.83
2019-06-26T12:11:29.728Z,101264.48
2019-06-26T12:13:59.521Z,101185.36
2019-06-26T12:17:08.249Z,101246.38
2019-06-26T12:19:38.052Z,101241.20
2019-06-26T12:22:07.432Z,101234.67
2019-06-26T12:25:16.293Z,101226.86
2019-06-26T12:27:46.110Z,101225.30
2019-06-26T12:30:54.851Z,101223.45
2019-06-26T12:33:24.265Z,101221.17
2019-06-26T12:36:33.082Z,101224.13
2019-06-26T12:41:59.487Z,101219.94
2019-06-26T12:44:30.941Z,101209.67
2019-06-26T12:47:00.464Z,101200.42
2019-06-26T12:49:30.259Z,101204.59
2019-06-26T12:52:02.304Z,101203.02
2019-06-26T12:54:32.011Z,101202.30
2019-06-26T12:57:01.356Z,101198.97
2019-06-26T13:05:36.316Z,101215.53
2019-06-26T13:08:05.827Z,101221.60
2019-06-26T13:10:48.769Z,101214.89
2019-06-26T13:13:06.382Z,101216.23
2019-06-26T13:15:35.730Z,101212.02
2019-06-26T13:18:05.227Z,101218.58
2019-06-26T13:20:48.237Z,101216.87
2019-06-26T13:23:06.149Z,101207.63
2019-06-26T13:25:48.837Z,101219.67
2019-06-26T13:28:18.302Z,101216.78
2019-06-26T13:30:53.075Z,101214.05
2019-06-26T13:34:00.111Z,101206.88
2019-06-26T13:36:29.641Z,101204.77
2019-06-26T13:38:59.030Z,101202.02
2019-06-26T13:42:07.814Z,101228.27
2019-06-26T13:44:37.639Z,101220.95
2019-06-26T13:47:07.204Z,101231.70
2019-06-26T13:49:55.699Z,101233.39
2019-06-26T13:52:25.595Z,101227.84
2019-06-26T13:54:57.198Z,101225.12
2019-06-26T13:57:26.991Z,101223.51
2019-06-26T14:06:00.657Z,101220.21
2019-06-26T14:11:19.109Z,101207.47
2019-06-26T14:13:48.843Z,101203.43
2019-06-26T14:16:18.205Z,101203.77
2019-06-26T14:18:47.627Z,101204.22
2019-06-26T14:21:56.739Z,101201.47
2019-06-26T14:27:32.817Z,101194.39
2019-06-26T14:30:02.327Z,101188.17
2019-06-26T14:32:31.727Z,101191.88
2019-06-26T14:35:01.180Z,101193.25
2019-06-26T14:37:41.693Z,101190.13
2019-06-26T14:40:22.616Z,101114.98
2019-06-26T14:42:52.068Z,101177.05
2019-06-26T14:45:21.413Z,101176.78
2019-06-26T14:47:50.855Z,101180.58
2019-06-26T14:56:36.240Z,101168.13
2019-06-26T14:59:06.043Z,101178.98
2019-06-26T15:04:31.526Z,101162.14
2019-06-26T15:07:01.074Z,101156.27
2019-06-26T15:10:09.935Z,101154.47
2019-06-26T15:15:54.925Z,101145.34
2019-06-26T15:18:25.653Z,101144.31
2019-06-26T15:20:55.124Z,101145.04
2019-06-26T15:23:24.521Z,101142.61
2019-06-26T15:25:54.071Z,101145.64
2019-06-26T15:29:02.809Z,101150.13
2019-06-26T15:34:47.418Z,101146.77
2019-06-26T15:40:20.539Z,101145.02
2019-06-26T15:42:50.002Z,101147.51
2019-06-26T15:48:16.903Z,101141.55
2019-06-26T15:51:07.155Z,101130.47
2019-06-26T15:53:59.777Z,101127.63
2019-06-26T15:56:28.091Z,101119.02
2019-06-26T16:01:53.230Z,101110.28
2019-06-26T16:04:22.642Z,101102.58
2019-06-26T16:06:52.570Z,101101.87
2019-06-26T16:09:41.500Z,101097.01
2019-06-26T16:12:11.310Z,101095.52
2019-06-26T16:14:40.757Z,101088.92
2019-06-26T16:19:55.469Z,101091.02
2019-06-26T16:22:32.381Z,101085.16
2019-06-26T16:28:04.592Z,101081.62
2019-06-26T16:36:32.401Z,101067.78
2019-06-26T16:39:41.223Z,101068.12
2019-06-26T16:42:10.716Z,101056.80
2019-06-26T16:44:40.175Z,101049.45
2019-06-26T16:47:09.850Z,101059.69
2019-06-26T16:49:51.562Z,101054.17
2019-06-26T16:55:16.850Z,101044.69
2019-06-26T16:58:25.943Z,101034.69
2019-06-26T17:00:55.707Z,101036.23
2019-06-26T17:03:25.207Z,101033.59
2019-06-26T17:05:54.691Z,101032.45
2019-06-26T17:11:19.947Z,101028.69
2019-06-26T17:13:50.236Z,101029.34
2019-06-26T17:16:19.891Z,101021.83
2019-06-26T17:18:49.312Z,101022.87
2019-06-26T17:21:18.797Z,101024.91
2019-06-26T17:23:48.314Z,101021.19
2019-06-26T17:26:17.850Z,101013.44
2019-06-26T17:28:49.412Z,101015.81
2019-06-26T17:31:19.375Z,101018.46
2019-06-26T17:33:49.108Z,101019.41
2019-06-26T17:36:18.536Z,101017.92
2019-06-26T17:39:27.282Z,101016.47
2019-06-26T17:41:56.735Z,101018.30
2019-06-26T17:44:26.132Z,101014.32
2019-06-26T17:46:58.134Z,101012.64
2019-06-26T17:49:28.029Z,101010.98
2019-06-26T17:51:57.932Z,101007.00
2019-06-26T17:54:27.444Z,101011.02
2019-06-26T17:56:56.813Z,101001.01
2019-06-26T17:59:26.740Z,100999.97
2019-06-26T18:01:56.369Z,101003.84
2019-06-26T18:04:25.727Z,100999.97
2019-06-26T18:06:55.149Z,101000.84
2019-06-26T18:09:24.689Z,100996.14
2019-06-26T18:11:54.126Z,100985.87
2019-06-26T18:14:24.004Z,100989.56
2019-06-26T18:16:53.512Z,100991.18
2019-06-26T18:19:23.668Z,100984.41
2019-06-26T18:21:53.357Z,100991.48
2019-06-26T18:24:22.722Z,100986.69
2019-06-26T18:29:41.818Z,100971.77
2019-06-26T18:32:11.342Z,100969.94
2019-06-26T18:34:41.608Z,100965.91
2019-06-26T18:37:11.124Z,100972.48
2019-06-26T18:39:40.513Z,100971.30
2019-06-26T18:42:10.395Z,100968.61
2019-06-26T18:44:39.755Z,100965.44
2019-06-26T18:50:11.469Z,100964.44
2019-06-26T18:52:40.824Z,100961.38
2019-06-26T18:55:22.080Z,100964.26
2019-06-26T18:58:10.474Z,100966.75
2019-06-26T19:00:39.860Z,100965.23
2019-06-26T19:03:09.258Z,100966.07
2019-06-26T19:08:34.610Z,100968.91
2019-06-26T19:11:04.418Z,100971.56
2019-06-26T19:13:33.869Z,100968.81
2019-06-26T19:16:04.716Z,100966.13
2019-06-26T19:18:36.334Z,100969.80
2019-06-26T19:21:06.798Z,100971.83
2019-06-26T19:23:37.484Z,100976.01
2019-06-26T19:26:10.093Z,100973.64
2019-06-26T19:28:40.147Z,100975.25
2019-06-26T19:31:48.958Z,100977.58
2019-06-26T19:35:07.910Z,100973.61
2019-06-26T19:40:45.124Z,100982.73
2019-06-26T19:43:14.691Z,100989.91
2019-06-26T19:45:44.473Z,100989.34
2019-06-26T19:48:53.462Z,100989.43
2019-06-26T19:51:23.059Z,100983.21
2019-06-26T19:53:52.901Z,100987.16
2019-06-26T19:56:34.127Z,100996.11
2019-06-26T20:02:05.770Z,101002.20
2019-06-26T20:04:35.255Z,101003.11
2019-06-26T20:07:44.960Z,101007.39
2019-06-26T20:10:54.326Z,101004.14
2019-06-26T20:16:38.489Z,101013.59
2019-06-26T20:19:08.778Z,101017.31
2019-06-26T20:21:39.206Z,101022.06
2019-06-26T20:24:11.778Z,101024.79
2019-06-26T20:26:41.499Z,101020.73
2019-06-26T20:29:11.138Z,101015.64
2019-06-26T20:31:40.597Z,101016.73
2019-06-26T20:34:09.993Z,101019.16
2019-06-26T20:36:39.439Z,101028.72
2019-06-26T20:39:10.300Z,101024.64
2019-06-26T20:41:40.158Z,101030.34
2019-06-26T20:44:10.282Z,101024.11
2019-06-26T20:46:59.304Z,101027.91
2019-06-26T20:49:52.256Z,101029.48
2019-06-26T20:52:09.317Z,101029.22
2019-06-26T20:54:39.144Z,101029.05
2019-06-26T20:57:28.251Z,101038.14
2019-06-26T20:59:58.025Z,101033.16
2019-06-26T21:02:27.959Z,101042.07
2019-06-26T21:10:55.328Z,101039.44
2019-06-26T21:16:33.364Z,101041.77
2019-06-26T21:19:03.321Z,101040.47
2019-06-26T21:21:34.464Z,101037.00
2019-06-26T21:24:03.964Z,101046.64
2019-06-26T21:26:33.770Z,101046.55
2019-06-26T21:29:42.904Z,101051.11
2019-06-26T21:32:12.756Z,101046.69
2019-06-26T21:35:02.570Z,101054.95
2019-06-26T21:37:32.772Z,101053.13
2019-06-26T21:42:52.598Z,101063.55
2019-06-26T21:46:01.409Z,101062.50
2019-06-26T21:54:28.544Z,101059.49
2019-06-26T21:56:59.724Z,101058.41
2019-06-26T21:59:30.546Z,101058.59
2019-06-26T22:02:00.764Z,101066.30
2019-06-26T22:04:31.183Z,101063.68
2019-06-26T22:09:56.942Z,101075.00
2019-06-26T22:12:26.511Z,101073.23
2019-06-26T22:15:35.332Z,101076.52
2019-06-26T22:18:04.741Z,101078.72
2019-06-26T22:20:34.737Z,101081.55
2019-06-26T22:28:54.430Z,101077.08
2019-06-26T22:31:23.830Z,101077.80
2019-06-26T22:33:53.623Z,101077.37
2019-06-26T22:36:24.846Z,101078.61
2019-06-26T22:39:33.657Z,101079.49
2019-06-26T22:42:42.421Z,101064.89
2019-06-26T22:48:26.464Z,101081.41
2019-06-26T22:50:56.491Z,101079.73
2019-06-26T22:53:25.902Z,101081.58
2019-06-26T22:56:14.784Z,101080.16
2019-06-26T22:58:44.260Z,101077.27
2019-06-26T23:01:14.493Z,101083.07
2019-06-26T23:03:43.887Z,101078.63
2019-06-26T23:06:13.750Z,101071.95
2019-06-26T23:08:43.334Z,101082.85
2019-06-26T23:14:09.410Z,101074.64
2019-06-26T23:22:45.126Z,101065.95
2019-06-26T23:25:15.837Z,101072.02
2019-06-26T23:27:46.833Z,101066.08
2019-06-26T23:30:58.415Z,101068.98
2019-06-26T23:33:28.669Z,101074.17
2019-06-26T23:35:58.666Z,101070.80
2019-06-26T23:38:47.733Z,101080.84
2019-06-26T23:41:18.300Z,101081.80
2019-06-26T23:43:47.777Z,101078.16
2019-06-26T23:49:13.839Z,101086.24
2019-06-26T23:51:44.203Z,101080.30
2019-06-26T23:54:14.153Z,101084.55
2019-06-26T23:57:22.828Z,101076.80
